Time;durP1;ratioP1;P1;durP2;ratioP2;P2;SDS_P1;SDS_P2;PMS_P1;PMS_P2;Temp;Humidity;BMP_temperature;BMP_pressure;BME280_temperature;BME280_humidity;BME280_pressure;Samples;Min_cycle;Max_cycle;Signal;HPM_P1;HPM_P2
2021/06/13 00:02:00;;;;;;;10.13;5.28;;;14.90;99.90;;;;;;5058393;28;20497;-63
2021/06/13 00:04:26;;;;;;;11.85;5.45;;;14.80;99.90;;;;;;5058024;28;20473;-63
2021/06/13 00:06:53;;;;;;;9.68;5.78;;;14.80;99.90;;;;;;5057999;28;20021;-63
2021/06/13 00:09:20;;;;;;;8.60;5.03;;;14.70;99.90;;;;;;5058115;28;20079;-63
2021/06/13 00:11:46;;;;;;;6.80;5.00;;;14.70;99.90;;;;;;5058110;28;20028;-63
2021/06/13 00:14:13;;;;;;;5.55;4.85;;;14.60;99.90;;;;;;5058220;28;20025;-63
2021/06/13 00:16:39;;;;;;;7.82;4.65;;;14.70;99.90;;;;;;5056411;28;20052;-63
2021/06/13 00:19:05;;;;;;;7.53;4.38;;;14.70;99.90;;;;;;5058127;28;20013;-63
2021/06/13 00:21:30;;;;;;;9.82;5.40;;;14.60;99.90;;;;;;5057498;28;20017;-63
2021/06/13 00:23:56;;;;;;;9.88;6.32;;;14.60;99.90;;;;;;5057729;28;20072;-63
2021/06/13 00:26:22;;;;;;;8.90;5.90;;;14.60;99.90;;;;;;5057761;28;20029;-63
2021/06/13 00:28:48;;;;;;;16.15;6.18;;;14.70;99.90;;;;;;5057726;28;20024;-63
2021/06/13 00:31:14;;;;;;;14.45;5.65;;;14.60;99.90;;;;;;5057618;28;20037;-63
2021/06/13 00:33:40;;;;;;;9.02;6.38;;;14.50;99.90;;;;;;5057906;28;20096;-63
2021/06/13 00:36:06;;;;;;;11.68;5.47;;;14.60;99.90;;;;;;5057176;28;20035;-63
2021/06/13 00:38:32;;;;;;;10.50;6.10;;;14.50;99.90;;;;;;5057924;28;20082;-63
2021/06/13 00:40:58;;;;;;;13.77;7.20;;;14.50;99.90;;;;;;5057500;28;20025;-63
2021/06/13 00:43:24;;;;;;;8.27;6.00;;;14.50;99.90;;;;;;5057698;28;20108;-63
2021/06/13 00:45:50;;;;;;;11.98;6.18;;;14.40;99.90;;;;;;5057430;28;20520;-63
2021/06/13 00:48:16;;;;;;;7.90;5.72;;;14.50;99.90;;;;;;5057385;28;20017;-63
2021/06/13 00:50:46;;;;;;;6.60;5.57;;;14.50;99.90;;;;;;5056969;28;20040;-63
2021/06/13 00:53:12;;;;;;;9.20;6.45;;;14.50;99.90;;;;;;5057349;28;20021;-63
2021/06/13 00:55:39;;;;;;;13.00;6.75;;;14.40;99.90;;;;;;5057296;28;20045;-63
2021/06/13 00:58:06;;;;;;;8.93;5.75;;;14.30;99.90;;;;;;5057335;28;20021;-63
2021/06/13 01:00:33;;;;;;;10.07;5.72;;;14.30;99.90;;;;;;5057253;28;20033;-63
2021/06/13 01:02:59;;;;;;;7.70;5.30;;;14.40;99.90;;;;;;5057328;28;20028;-63
2021/06/13 01:05:27;;;;;;;10.38;5.60;;;14.30;99.90;;;;;;5056764;28;20029;-63
2021/06/13 01:08:04;;;;;;;11.23;5.70;;;14.30;99.90;;;;;;5057259;28;20040;-63
2021/06/13 01:11:01;;;;;;;11.88;5.97;;;14.30;99.90;;;;;;5057118;28;20438;-63
2021/06/13 01:13:58;;;;;;;11.95;5.95;;;14.30;99.90;;;;;;5057046;28;20025;-63
2021/06/13 01:17:10;;;;;;;11.85;6.68;;;14.30;99.90;;;;;;5056845;28;20029;-63
2021/06/13 01:19:48;;;;;;;14.98;6.80;;;14.30;99.90;;;;;;5054497;28;20025;-63
2021/06/13 01:22:45;;;;;;;10.30;6.43;;;14.20;99.90;;;;;;5056704;28;20059;-63
2021/06/13 01:26:06;;;;;;;11.52;6.60;;;14.20;99.90;;;;;;5056732;28;20132;-63
2021/06/13 01:28:56;;;;;;;14.85;6.78;;;14.20;99.90;;;;;;5054882;28;20029;-63
2021/06/13 01:31:28;;;;;;;14.27;7.03;;;14.20;99.90;;;;;;5056648;28;20093;-63
2021/06/13 01:33:56;;;;;;;15.13;7.28;;;14.10;99.90;;;;;;5056599;28;20029;-63
2021/06/13 01:36:24;;;;;;;10.45;7.00;;;14.20;99.90;;;;;;5056520;28;20017;-63
2021/06/13 01:38:50;;;;;;;12.18;6.38;;;14.10;99.90;;;;;;5056543;28;20108;-63
2021/06/13 01:41:22;;;;;;;14.68;7.07;;;14.20;99.90;;;;;;5056464;28;20108;-63
2021/06/13 01:43:51;;;;;;;12.23;6.63;;;14.10;99.90;;;;;;5056611;28;20028;-63
2021/06/13 01:46:18;;;;;;;11.75;6.20;;;14.00;99.90;;;;;;5056575;28;20033;-63
2021/06/13 01:48:46;;;;;;;12.48;6.45;;;14.10;99.90;;;;;;5056474;28;20108;-63
2021/06/13 01:51:12;;;;;;;12.35;6.25;;;14.10;99.90;;;;;;5056326;28;20435;-63
2021/06/13 01:53:43;;;;;;;10.85;7.00;;;14.00;99.90;;;;;;5056406;28;20020;-63
2021/06/13 01:56:17;;;;;;;11.73;6.68;;;14.00;99.90;;;;;;5056597;28;20108;-63
2021/06/13 01:58:46;;;;;;;11.23;6.60;;;14.00;99.90;;;;;;5056477;28;20078;-63
2021/06/13 02:01:19;;;;;;;12.82;6.75;;;13.80;99.90;;;;;;5059043;28;20075;-63
2021/06/13 02:03:51;;;;;;;12.82;7.32;;;14.00;99.90;;;;;;5060520;28;20036;-63
2021/06/13 02:06:23;;;;;;;13.63;6.10;;;13.90;99.90;;;;;;5060275;28;20028;-63
2021/06/13 02:08:49;;;;;;;11.38;6.63;;;14.00;99.90;;;;;;5060545;28;20025;-63
2021/06/13 02:11:16;;;;;;;13.20;7.80;;;13.90;99.90;;;;;;5060508;28;20048;-63
2021/06/13 02:13:45;;;;;;;13.93;7.20;;;13.90;99.90;;;;;;5060480;28;20457;-63
2021/06/13 02:16:13;;;;;;;12.27;6.25;;;13.90;99.90;;;;;;5060321;28;20020;-63
2021/06/13 02:18:39;;;;;;;12.82;7.63;;;13.90;99.90;;;;;;5060223;28;20384;-63
2021/06/13 02:21:08;;;;;;;13.00;7.28;;;13.90;99.90;;;;;;5059966;28;20385;-63
2021/06/13 02:23:36;;;;;;;12.23;6.65;;;14.00;99.90;;;;;;5060170;28;20155;-63
2021/06/13 02:26:02;;;;;;;16.50;6.95;;;13.80;99.90;;;;;;5060160;28;20045;-63
2021/06/13 02:28:32;;;;;;;12.70;7.70;;;13.90;99.90;;;;;;5060358;28;20029;-63
2021/06/13 02:31:01;;;;;;;13.27;8.15;;;13.80;99.90;;;;;;5059875;28;20097;-63
2021/06/13 02:33:29;;;;;;;14.10;7.57;;;13.80;99.90;;;;;;5060361;28;20033;-63
2021/06/13 02:35:56;;;;;;;9.43;7.32;;;13.80;99.90;;;;;;5059652;28;20027;-63
2021/06/13 02:38:22;;;;;;;11.95;6.57;;;13.80;99.90;;;;;;5059828;28;20536;-63
2021/06/13 02:40:49;;;;;;;14.35;7.30;;;13.80;99.90;;;;;;5059755;28;20053;-63
2021/06/13 02:43:16;;;;;;;10.25;6.93;;;13.70;99.90;;;;;;5059829;28;20064;-63
2021/06/13 02:45:43;;;;;;;19.50;8.00;;;13.70;99.90;;;;;;5059787;28;20028;-63
2021/06/13 02:48:09;;;;;;;16.02;7.63;;;13.80;99.90;;;;;;5059795;28;20029;-63
2021/06/13 02:50:36;;;;;;;10.85;7.05;;;13.80;99.90;;;;;;5059383;28;20021;-63
2021/06/13 02:53:23;;;;;;;17.88;9.27;;;13.70;99.90;;;;;;5059841;28;20028;-63
2021/06/13 02:55:58;;;;;;;10.77;5.97;;;13.80;99.90;;;;;;5058346;28;20032;-63
2021/06/13 02:58:39;;;;;;;12.60;6.75;;;13.70;99.90;;;;;;5059643;28;20029;-63
2021/06/13 03:01:07;;;;;;;16.20;7.43;;;13.80;99.90;;;;;;5059651;28;20021;-63
2021/06/13 03:03:34;;;;;;;14.43;7.32;;;13.70;99.90;;;;;;5059483;28;20186;-63
2021/06/13 03:06:06;;;;;;;14.10;7.82;;;13.80;99.90;;;;;;5059338;28;20053;-63
2021/06/13 03:08:34;;;;;;;15.70;8.10;;;13.70;99.90;;;;;;5059383;28;20040;-63
2021/06/13 03:11:02;;;;;;;14.50;8.15;;;13.70;99.90;;;;;;5059204;28;20025;-63
2021/06/13 03:13:29;;;;;;;20.73;8.63;;;13.70;99.90;;;;;;5058336;28;20047;-63
2021/06/13 03:15:55;;;;;;;13.40;7.10;;;13.70;99.90;;;;;;5059379;28;20025;-63
2021/06/13 03:18:22;;;;;;;9.48;6.10;;;13.70;99.90;;;;;;5059133;28;20116;-63
2021/06/13 03:20:50;;;;;;;10.80;6.78;;;13.60;99.90;;;;;;5058934;28;20089;-63
2021/06/13 03:23:17;;;;;;;11.35;7.07;;;13.80;99.90;;;;;;5059013;28;20028;-63
2021/06/13 03:25:43;;;;;;;14.32;7.22;;;13.60;99.90;;;;;;5058910;28;20401;-63
2021/06/13 03:28:10;;;;;;;11.63;7.75;;;13.60;99.90;;;;;;5059127;28;20405;-63
2021/06/13 03:30:36;;;;;;;17.20;7.55;;;13.70;99.90;;;;;;5058916;28;20050;-63
2021/06/13 03:33:05;;;;;;;11.13;7.53;;;13.60;99.90;;;;;;5059147;28;20026;-63
2021/06/13 03:35:31;;;;;;;13.55;7.70;;;13.70;99.90;;;;;;5058694;28;20018;-63
2021/06/13 03:37:58;;;;;;;15.32;8.77;;;13.70;99.90;;;;;;5058882;28;20079;-63
2021/06/13 03:40:26;;;;;;;17.38;7.70;;;13.70;99.90;;;;;;5058513;28;20036;-63
2021/06/13 03:42:54;;;;;;;14.95;7.53;;;13.70;99.90;;;;;;5058729;28;20033;-63
2021/06/13 03:45:20;;;;;;;15.88;7.85;;;13.70;99.90;;;;;;5058691;28;20025;-63
2021/06/13 03:47:47;;;;;;;13.05;7.88;;;13.70;99.90;;;;;;5058711;28;20025;-63
2021/06/13 03:50:17;;;;;;;23.60;9.73;;;13.70;99.90;;;;;;5058182;28;20480;-63
2021/06/13 03:52:43;;;;;;;14.07;8.63;;;13.80;99.90;;;;;;5058782;28;20063;-63
2021/06/13 03:55:10;;;;;;;12.45;7.72;;;13.70;99.90;;;;;;5058324;28;20025;-63
2021/06/13 03:57:39;;;;;;;15.90;7.72;;;13.70;99.90;;;;;;5058568;28;20017;-63
2021/06/13 04:00:06;;;;;;;10.27;7.88;;;13.70;99.90;;;;;;5058410;28;20025;-63
2021/06/13 04:02:32;;;;;;;16.98;8.35;;;13.80;99.90;;;;;;5058758;28;20025;-63
2021/06/13 04:05:00;;;;;;;17.00;7.93;;;13.70;99.90;;;;;;5058095;28;20024;-63
2021/06/13 04:07:26;;;;;;;12.75;7.57;;;13.70;99.90;;;;;;5058492;28;20047;-63
2021/06/13 04:09:52;;;;;;;10.13;7.03;;;13.70;99.90;;;;;;5057970;28;20492;-63
2021/06/13 04:12:23;;;;;;;12.48;7.88;;;13.80;99.90;;;;;;5058321;28;20031;-63
2021/06/13 04:14:51;;;;;;;12.55;7.78;;;13.70;99.90;;;;;;5058143;28;20063;-63
2021/06/13 04:17:19;;;;;;;16.45;8.10;;;13.70;99.90;;;;;;5058006;28;20028;-63
2021/06/13 04:19:49;;;;;;;13.65;7.60;;;13.70;99.90;;;;;;5057716;28;20071;-63
2021/06/13 04:22:17;;;;;;;21.42;8.75;;;13.70;99.90;;;;;;5058109;28;20040;-63
2021/06/13 04:24:45;;;;;;;14.30;8.25;;;13.70;99.90;;;;;;5057188;28;20106;-63
2021/06/13 04:27:13;;;;;;;12.63;7.72;;;13.60;99.90;;;;;;5058121;28;20036;-63
2021/06/13 04:29:40;;;;;;;13.07;7.50;;;13.80;99.90;;;;;;5057650;28;20114;-63
2021/06/13 04:32:10;;;;;;;17.23;8.38;;;13.60;99.90;;;;;;5058086;28;20029;-63
2021/06/13 04:34:37;;;;;;;15.82;8.35;;;13.70;99.90;;;;;;5057535;28;20025;-63
2021/06/13 04:37:03;;;;;;;14.60;8.38;;;13.60;99.90;;;;;;5057611;28;20025;-63
2021/06/13 04:39:29;;;;;;;16.48;8.65;;;13.80;99.90;;;;;;5057830;28;20021;-63
2021/06/13 04:41:55;;;;;;;13.68;7.25;;;13.80;99.90;;;;;;5057556;28;20025;-63
2021/06/13 04:44:21;;;;;;;13.40;7.03;;;13.70;99.90;;;;;;5057581;28;20032;-63
2021/06/13 04:46:47;;;;;;;17.33;8.35;;;13.90;99.90;;;;;;5057443;28;20017;-63
2021/06/13 04:49:13;;;;;;;14.55;7.60;;;13.80;99.90;;;;;;5057460;28;20017;-63
2021/06/13 04:51:41;;;;;;;15.95;7.25;;;14.00;99.90;;;;;;5057243;28;20032;-63
2021/06/13 04:54:18;;;;;;;14.55;7.15;;;14.00;99.90;;;;;;5057409;28;20021;-63
2021/06/13 04:56:49;;;;;;;11.35;8.27;;;14.10;99.90;;;;;;5057287;28;20056;-63
2021/06/13 04:59:15;;;;;;;19.50;7.65;;;14.10;99.90;;;;;;5057201;28;20083;-63
2021/06/13 05:01:42;;;;;;;12.65;6.82;;;14.20;99.90;;;;;;5057369;28;20029;-63
2021/06/13 05:04:09;;;;;;;11.10;7.13;;;14.30;99.90;;;;;;5057166;28;20025;-63
2021/06/13 05:06:35;;;;;;;12.40;7.85;;;14.50;99.90;;;;;;5057002;28;20074;-63
2021/06/13 05:09:02;;;;;;;12.80;7.20;;;14.60;99.90;;;;;;5057316;28;20032;-63
2021/06/13 05:11:28;;;;;;;9.77;6.38;;;14.70;99.90;;;;;;5057003;28;20037;-63
2021/06/13 05:13:54;;;;;;;12.63;7.45;;;14.90;99.90;;;;;;5057092;28;20106;-63
2021/06/13 05:16:20;;;;;;;9.77;6.43;;;15.10;99.90;;;;;;5056777;28;20017;-63
2021/06/13 05:18:46;;;;;;;15.20;8.57;;;15.20;99.90;;;;;;5057011;28;20017;-63
2021/06/13 05:21:11;;;;;;;13.02;7.78;;;15.30;99.90;;;;;;5056519;28;20183;-63
2021/06/13 05:23:37;;;;;;;11.55;6.90;;;15.40;99.90;;;;;;5056684;28;20024;-63
2021/06/13 05:26:03;;;;;;;9.50;6.18;;;15.60;99.90;;;;;;5056956;28;20048;-63
2021/06/13 05:28:30;;;;;;;8.48;5.95;;;15.70;99.90;;;;;;5056984;28;20059;-63
2021/06/13 05:30:55;;;;;;;13.35;6.88;;;15.80;99.90;;;;;;5056648;28;20051;-63
2021/06/13 05:33:23;;;;;;;11.93;6.55;;;16.10;99.90;;;;;;5056866;28;20025;-63
2021/06/13 05:35:50;;;;;;;9.60;7.00;;;16.20;99.90;;;;;;5055637;28;20578;-63
2021/06/13 05:38:16;;;;;;;9.35;5.93;;;16.40;99.90;;;;;;5056747;28;20029;-63
2021/06/13 05:40:42;;;;;;;17.55;6.43;;;16.40;99.90;;;;;;5056564;28;20021;-63
2021/06/13 05:43:09;;;;;;;9.20;5.95;;;16.60;99.90;;;;;;5056524;28;20029;-63
2021/06/13 05:45:37;;;;;;;10.02;5.93;;;16.60;99.90;;;;;;5056714;28;20025;-63
2021/06/13 05:48:04;;;;;;;9.55;5.10;;;16.70;99.90;;;;;;5056605;28;20025;-64
2021/06/13 05:50:30;;;;;;;7.18;5.13;;;16.90;99.90;;;;;;5056533;28;20485;-63
2021/06/13 05:52:56;;;;;;;7.03;5.35;;;17.10;99.90;;;;;;5056540;28;20493;-63
2021/06/13 05:55:22;;;;;;;7.18;4.45;;;17.20;99.90;;;;;;5056377;28;20545;-63
2021/06/13 05:57:49;;;;;;;8.25;5.53;;;17.50;99.90;;;;;;5056510;28;20036;-63
2021/06/13 06:00:22;;;;;;;7.95;4.78;;;17.50;99.90;;;;;;5056454;28;20429;-63
2021/06/13 06:02:49;;;;;;;11.75;5.32;;;17.70;99.90;;;;;;5056505;28;20389;-63
2021/06/13 06:05:17;;;;;;;6.18;4.00;;;17.90;99.90;;;;;;5056097;28;20028;-63
2021/06/13 06:07:43;;;;;;;6.55;4.53;;;17.90;99.90;;;;;;5056445;28;20032;-63
2021/06/13 06:10:11;;;;;;;7.38;4.55;;;18.20;99.90;;;;;;5056077;28;20021;-64
2021/06/13 06:12:37;;;;;;;7.75;4.10;;;18.40;99.90;;;;;;5056390;28;20096;-63
2021/06/13 06:15:06;;;;;;;5.80;4.53;;;18.50;99.90;;;;;;5056516;28;20056;-63
2021/06/13 06:17:32;;;;;;;6.78;3.95;;;18.80;99.90;;;;;;5056296;28;20484;-63
2021/06/13 06:19:57;;;;;;;7.35;4.03;;;19.00;99.90;;;;;;5056086;28;20021;-64
2021/06/13 06:22:23;;;;;;;7.00;3.83;;;19.20;99.90;;;;;;5056270;28;20052;-63
2021/06/13 06:24:49;;;;;;;5.95;4.47;;;19.40;99.90;;;;;;5056004;28;20094;-63
2021/06/13 06:27:15;;;;;;;4.07;3.17;;;19.60;99.90;;;;;;5056246;28;20025;-63
2021/06/13 06:29:41;;;;;;;5.40;3.83;;;19.90;99.90;;;;;;5056203;28;20025;-63
2021/06/13 06:32:07;;;;;;;5.35;3.42;;;20.10;99.90;;;;;;5056174;28;20070;-63
2021/06/13 06:34:33;;;;;;;4.20;3.47;;;20.40;99.90;;;;;;5056017;28;20025;-64
2021/06/13 06:36:59;;;;;;;5.03;3.00;;;20.70;99.90;;;;;;5056259;28;20018;-64
2021/06/13 06:39:25;;;;;;;6.38;3.25;;;21.10;99.90;;;;;;5055831;28;20027;-64
2021/06/13 06:41:51;;;;;;;6.97;3.58;;;21.50;99.90;;;;;;5056196;28;20506;-64
2021/06/13 06:44:17;;;;;;;5.88;3.42;;;21.80;99.90;;;;;;5055966;28;20100;-64
2021/06/13 06:46:43;;;;;;;6.70;3.42;;;22.10;99.90;;;;;;5057587;28;20095;-64
2021/06/13 06:49:09;;;;;;;3.72;2.95;;;22.30;99.90;;;;;;5059377;28;20093;-64
2021/06/13 06:51:35;;;;;;;4.93;3.67;;;22.70;99.90;;;;;;5059853;28;20442;-64
2021/06/13 06:54:01;;;;;;;5.25;3.42;;;23.00;99.90;;;;;;5059598;28;20049;-64
2021/06/13 06:56:28;;;;;;;5.95;3.80;;;23.30;99.90;;;;;;5059804;28;20013;-64
2021/06/13 06:58:55;;;;;;;7.78;3.22;;;23.50;99.90;;;;;;5059448;28;20043;-63
2021/06/13 07:01:22;;;;;;;6.75;3.45;;;23.70;99.90;;;;;;5059737;28;20104;-64
2021/06/13 07:03:48;;;;;;;4.43;3.80;;;23.80;99.90;;;;;;5059321;28;20397;-64
2021/06/13 07:06:14;;;;;;;4.57;3.60;;;23.90;99.90;;;;;;5054054;28;20094;-58
2021/06/13 07:08:40;;;;;;;6.55;4.38;;;24.10;99.90;;;;;;5042746;28;20034;-59
2021/06/13 07:11:06;;;;;;;5.38;3.40;;;24.50;99.90;;;;;;5053129;28;20397;-59
2021/06/13 07:13:33;;;;;;;5.47;3.22;;;24.70;99.90;;;;;;5058537;28;20116;-59
2021/06/13 07:15:59;;;;;;;4.82;3.08;;;24.80;99.90;;;;;;5058799;28;20029;-59
2021/06/13 07:18:26;;;;;;;4.47;3.58;;;25.00;99.90;;;;;;5058680;28;20824;-60
2021/06/13 07:20:53;;;;;;;3.65;3.10;;;25.30;99.90;;;;;;5058572;28;20033;-59
2021/06/13 07:23:19;;;;;;;5.70;3.65;;;25.50;99.90;;;;;;5066677;28;20033;-59
2021/06/13 07:25:47;;;;;;;4.40;3.75;;;25.80;99.90;;;;;;5058722;28;20048;-59
2021/06/13 07:28:13;;;;;;;6.63;3.90;;;26.00;99.90;;;;;;5058904;28;20062;-59
2021/06/13 07:30:40;;;;;;;8.85;3.20;;;26.30;99.90;;;;;;5058577;28;20436;-59
2021/06/13 07:33:06;;;;;;;5.10;3.78;;;26.50;99.90;;;;;;5059045;28;20027;-59
2021/06/13 07:35:32;;;;;;;3.65;2.88;;;26.70;99.90;;;;;;5058783;28;20017;-59
2021/06/13 07:38:00;;;;;;;5.05;3.20;;;26.80;99.50;;;;;;5058258;28;20546;-59
2021/06/13 07:40:27;;;;;;;3.83;3.53;;;26.90;98.80;;;;;;5060967;28;20119;-59
2021/06/13 07:42:53;;;;;;;4.18;3.78;;;27.10;98.00;;;;;;5058664;28;20024;-59
2021/06/13 07:45:20;;;;;;;3.72;3.05;;;27.10;98.60;;;;;;5056695;28;20447;-59
2021/06/13 07:47:47;;;;;;;4.25;3.20;;;27.50;98.60;;;;;;5057939;28;20116;-59
2021/06/13 07:50:14;;;;;;;3.83;3.13;;;27.80;97.30;;;;;;5058159;28;20508;-60
2021/06/13 07:52:41;;;;;;;6.55;3.42;;;27.90;97.00;;;;;;5058285;28;20385;-65
2021/06/13 07:55:08;;;;;;;6.25;3.55;;;27.90;96.30;;;;;;5062759;28;20028;-65
2021/06/13 07:57:34;;;;;;;3.38;3.05;;;27.80;96.30;;;;;;5058036;28;20029;-65
2021/06/13 08:00:00;;;;;;;3.95;3.17;;;27.90;96.30;;;;;;5057895;28;20044;-65
2021/06/13 08:02:26;;;;;;;5.07;2.75;;;28.20;95.60;;;;;;5044829;28;20026;-65
2021/06/13 08:04:56;;;;;;;3.33;2.65;;;28.60;95.90;;;;;;5058460;28;20028;-65
2021/06/13 08:07:22;;;;;;;4.28;3.00;;;28.90;95.50;;;;;;5057923;28;20037;-65
2021/06/13 08:09:48;;;;;;;3.22;2.65;;;29.20;94.60;;;;;;5058026;28;20113;-65
2021/06/13 08:12:15;;;;;;;4.22;3.08;;;29.40;94.50;;;;;;5058081;28;20029;-64
2021/06/13 08:14:41;;;;;;;4.28;2.75;;;29.60;93.80;;;;;;5057682;28;20089;-65
2021/06/13 08:17:07;;;;;;;4.00;2.50;;;29.50;93.50;;;;;;5056408;28;20492;-66
2021/06/13 08:19:33;;;;;;;7.15;2.90;;;29.50;93.30;;;;;;5057317;28;20032;-64
2021/06/13 08:21:58;;;;;;;3.15;2.00;;;29.60;92.90;;;;;;5066431;28;20501;-65
2021/06/13 08:24:24;;;;;;;4.20;3.13;;;29.50;93.40;;;;;;5057948;28;20101;-65
2021/06/13 08:26:50;;;;;;;3.40;3.10;;;29.50;92.60;;;;;;5057767;28;20083;-65
2021/06/13 08:29:16;;;;;;;3.00;2.63;;;29.60;92.60;;;;;;5050193;28;20040;-66
2021/06/13 08:31:42;;;;;;;2.50;1.98;;;29.80;92.30;;;;;;5057026;28;20033;-65
2021/06/13 08:34:08;;;;;;;2.88;2.58;;;30.40;92.00;;;;;;5057440;28;20025;-66
2021/06/13 08:36:34;;;;;;;3.60;2.15;;;31.10;91.00;;;;;;5057613;28;20389;-66
2021/06/13 08:39:00;;;;;;;3.38;2.80;;;31.40;90.00;;;;;;5057506;28;20017;-65
2021/06/13 08:41:26;;;;;;;2.75;2.22;;;31.50;89.50;;;;;;5057444;28;20040;-66
2021/06/13 08:43:53;;;;;;;3.33;2.28;;;31.80;89.60;;;;;;5056920;28;20081;-66
2021/06/13 08:46:21;;;;;;;3.72;2.33;;;32.00;87.60;;;;;;5057310;28;20499;-66
2021/06/13 08:48:48;;;;;;;4.03;2.10;;;32.20;86.50;;;;;;5057141;28;20025;-65
2021/06/13 08:51:14;;;;;;;2.67;2.22;;;32.40;85.20;;;;;;5056912;28;20036;-66
2021/06/13 08:53:46;;;;;;;5.70;2.53;;;32.40;84.70;;;;;;5057039;28;20024;-66
2021/06/13 08:56:17;;;;;;;3.13;2.47;;;32.40;83.20;;;;;;5057381;28;20028;-67
2021/06/13 08:58:43;;;;;;;2.10;1.90;;;32.40;83.00;;;;;;5056310;28;20036;-67
2021/06/13 09:01:11;;;;;;;3.15;1.92;;;32.70;83.60;;;;;;5057396;28;20037;-66
2021/06/13 09:03:37;;;;;;;1.80;1.70;;;32.90;81.90;;;;;;5056442;28;20174;-66
2021/06/13 09:06:03;;;;;;;3.85;2.47;;;32.90;81.40;;;;;;5048641;28;20028;-66
2021/06/13 09:08:34;;;;;;;2.08;1.75;;;32.90;81.60;;;;;;5056957;28;20118;-67
2021/06/13 09:11:01;;;;;;;1.95;1.83;;;33.00;80.30;;;;;;5057059;28;20366;-66
2021/06/13 09:13:29;;;;;;;2.25;2.05;;;33.20;80.30;;;;;;5056417;28;20064;-65
2021/06/13 09:15:58;;;;;;;2.67;2.15;;;33.40;80.00;;;;;;5056558;28;20035;-65
2021/06/13 09:18:31;;;;;;;2.30;1.90;;;33.60;79.80;;;;;;5056469;28;20027;-64
2021/06/13 09:20:59;;;;;;;2.67;1.80;;;34.00;79.20;;;;;;5056140;28;20033;-66
2021/06/13 09:23:30;;;;;;;2.50;2.30;;;34.20;78.10;;;;;;5056750;28;20021;-66
2021/06/13 09:26:05;;;;;;;3.25;2.00;;;34.40;78.30;;;;;;5056630;28;20029;-64
2021/06/13 09:28:36;;;;;;;2.55;2.10;;;34.40;76.30;;;;;;5056061;28;20029;-74
2021/06/13 09:31:05;;;;;;;2.30;2.03;;;34.40;76.50;;;;;;5055228;28;20112;-74
2021/06/13 09:33:36;;;;;;;3.65;2.17;;;34.60;77.20;;;;;;5056791;28;20020;-60
2021/06/13 09:36:05;;;;;;;1.80;1.65;;;35.00;76.50;;;;;;5050653;28;20021;-63
2021/06/13 09:38:43;;;;;;;4.07;1.80;;;35.10;75.00;;;;;;5037698;28;20037;-64
2021/06/13 09:41:13;;;;;;;5.05;1.70;;;34.80;75.00;;;;;;5043415;28;20028;-69
2021/06/13 09:43:41;;;;;;;2.25;1.77;;;34.70;76.50;;;;;;5056819;28;20029;-69
2021/06/13 09:46:07;;;;;;;1.77;1.67;;;35.00;75.60;;;;;;5056286;28;20363;-67
2021/06/13 09:48:38;;;;;;;1.50;1.40;;;35.50;74.60;;;;;;5056252;28;20036;-70
2021/06/13 09:51:09;;;;;;;1.90;1.80;;;35.60;73.60;;;;;;5056072;28;20146;-69
2021/06/13 09:53:44;;;;;;;2.47;1.70;;;35.70;73.60;;;;;;5056265;28;20488;-68
2021/06/13 09:56:21;;;;;;;1.65;1.50;;;35.60;71.90;;;;;;5055078;28;20029;-68
2021/06/13 09:58:52;;;;;;;2.80;1.42;;;35.20;71.60;;;;;;5055856;28;20536;-68
2021/06/13 10:01:20;;;;;;;2.38;1.88;;;35.30;71.90;;;;;;5061374;28;20085;-68
2021/06/13 10:03:47;;;;;;;1.60;1.50;;;35.40;70.70;;;;;;5055423;28;20488;-68
2021/06/13 10:06:14;;;;;;;1.65;1.40;;;35.60;72.40;;;;;;5055929;28;20397;-67
2021/06/13 10:08:42;;;;;;;2.42;1.33;;;36.00;71.80;;;;;;5055920;28;20025;-68
2021/06/13 10:11:09;;;;;;;1.58;1.48;;;36.30;71.00;;;;;;5055920;28;20041;-68
2021/06/13 10:13:55;;;;;;;1.58;1.48;;;36.50;71.00;;;;;;5056315;28;20029;-68
2021/06/13 10:16:24;;;;;;;3.25;1.30;;;36.50;69.80;;;;;;5055976;28;20017;-67
2021/06/13 10:18:59;;;;;;;1.58;1.48;;;36.80;70.40;;;;;;5055484;28;20497;-68
2021/06/13 10:21:27;;;;;;;1.73;1.45;;;37.00;69.00;;;;;;5057701;28;20037;-69
2021/06/13 10:23:55;;;;;;;3.17;1.50;;;36.90;68.30;;;;;;5059688;28;20080;-69
2021/06/13 10:26:20;;;;;;;2.22;1.80;;;36.90;68.30;;;;;;5058903;28;20021;-69
2021/06/13 10:28:47;;;;;;;2.53;1.40;;;36.90;69.30;;;;;;5059030;28;20108;-69
2021/06/13 10:31:13;;;;;;;2.80;1.48;;;36.30;69.20;;;;;;5059898;28;20060;-69
2021/06/13 10:33:40;;;;;;;2.30;1.55;;;36.00;69.10;;;;;;5060051;28;20029;-69
2021/06/13 10:36:07;;;;;;;1.30;1.20;;;35.70;70.70;;;;;;5059895;28;20485;-69
2021/06/13 10:38:33;;;;;;;1.65;1.48;;;35.90;71.30;;;;;;5060079;28;20064;-69
2021/06/13 10:40:59;;;;;;;1.48;1.33;;;36.40;70.10;;;;;;5060023;28;20032;-69
2021/06/13 10:43:27;;;;;;;5.38;3.65;;;36.60;69.10;;;;;;5060192;28;20044;-69
2021/06/13 10:46:02;;;;;;;2.38;1.80;;;37.00;68.50;;;;;;5060046;28;20029;-68
2021/06/13 10:48:39;;;;;;;1.38;1.20;;;37.30;67.40;;;;;;5060054;28;20061;-69
2021/06/13 10:51:28;;;;;;;2.08;1.15;;;37.50;67.60;;;;;;5059712;28;20036;-69
2021/06/13 10:54:14;;;;;;;2.75;1.27;;;37.20;63.90;;;;;;5059536;28;20023;-69
2021/06/13 10:56:40;;;;;;;1.90;1.10;;;37.20;65.70;;;;;;5059357;28;20017;-69
2021/06/13 10:59:15;;;;;;;1.95;1.20;;;37.40;66.00;;;;;;5059783;28;20025;-69
2021/06/13 11:02:04;;;;;;;2.42;1.25;;;37.50;67.10;;;;;;5059536;28;20021;-69
2021/06/13 11:04:44;;;;;;;2.92;0.90;;;37.70;65.60;;;;;;5059369;28;20563;-69
2021/06/13 11:07:12;;;;;;;2.03;1.40;;;37.40;65.60;;;;;;5059468;28;20047;-69
2021/06/13 11:10:17;;;;;;;0.85;0.85;;;37.40;66.40;;;;;;5059263;28;20025;-69
2021/06/13 11:13:04;;;;;;;2.08;0.85;;;37.60;65.90;;;;;;5059152;28;20033;-69
2021/06/13 11:18:06;;;;;;;1.00;0.90;;;38.20;63.70;;;;;;5059473;28;20362;-69
2021/06/13 11:23:05;;;;;;;0.70;0.70;;;39.00;64.70;;;;;;5059496;28;20024;-69
2021/06/13 11:25:35;;;;;;;2.05;1.00;;;39.40;63.10;;;;;;5058848;28;20084;-69
2021/06/13 11:28:13;;;;;;;0.75;0.73;;;39.50;61.30;;;;;;5059226;28;20106;-69
2021/06/13 11:30:42;;;;;;;2.53;1.05;;;39.60;61.20;;;;;;5059053;28;20036;-66
2021/06/13 11:33:09;;;;;;;1.25;1.10;;;39.70;60.60;;;;;;5057862;28;20055;-66
2021/06/13 11:35:44;;;;;;;2.72;0.80;;;39.60;60.10;;;;;;5058640;28;20036;-66
2021/06/13 11:38:11;;;;;;;0.75;0.63;;;39.50;59.90;;;;;;5058905;28;20389;-66
2021/06/13 11:40:46;;;;;;;0.90;0.85;;;39.60;60.20;;;;;;5058777;28;20033;-66
2021/06/13 11:43:14;;;;;;;1.23;1.00;;;39.70;60.20;;;;;;5058734;28;20024;-66
2021/06/13 11:45:53;;;;;;;2.10;0.88;;;39.90;60.40;;;;;;5059027;28;20116;-66
2021/06/13 11:48:22;;;;;;;0.90;0.80;;;39.70;58.30;;;;;;5058505;28;20021;-66
2021/06/13 11:51:10;;;;;;;2.65;0.80;;;39.20;59.80;;;;;;5058335;28;20489;-66
2021/06/13 11:54:03;;;;;;;0.73;0.73;;;39.50;61.00;;;;;;5058675;28;20028;-66
2021/06/13 11:56:35;;;;;;;0.93;0.60;;;40.00;59.50;;;;;;5058174;28;20460;-66
2021/06/13 11:59:04;;;;;;;1.08;0.68;;;40.30;58.90;;;;;;5058699;28;20048;-66
2021/06/13 12:01:33;;;;;;;0.75;0.75;;;40.60;57.70;;;;;;5058591;28;20025;-66
2021/06/13 12:03:59;;;;;;;0.40;0.40;;;40.80;57.30;;;;;;5058389;28;20035;-66
2021/06/13 12:06:25;;;;;;;2.80;0.50;;;40.00;56.90;;;;;;5058332;28;20033;-66
2021/06/13 12:08:52;;;;;;;1.38;0.50;;;40.00;58.20;;;;;;5058461;28;20032;-66
2021/06/13 12:11:30;;;;;;;1.75;0.80;;;40.30;58.20;;;;;;5058274;28;20105;-67
2021/06/13 12:14:17;;;;;;;1.25;0.70;;;40.40;56.40;;;;;;5058347;28;20025;-67
2021/06/13 12:16:43;;;;;;;1.13;1.13;;;40.40;56.00;;;;;;5057896;28;20033;-66
2021/06/13 12:19:10;;;;;;;0.70;0.70;;;40.60;56.40;;;;;;5057615;28;20021;-67
2021/06/13 12:21:35;;;;;;;2.17;1.20;;;40.80;56.10;;;;;;5058159;28;20075;-67
2021/06/13 12:29:39;;;;;;;1.20;0.75;;;40.40;55.40;;;;;;5057830;28;20040;-67
2021/06/13 12:32:15;;;;;;;2.58;0.75;;;40.50;55.80;;;;;;5057660;28;20025;-66
2021/06/13 12:34:42;;;;;;;2.03;0.50;;;40.80;55.00;;;;;;5057849;28;20576;-67
2021/06/13 12:37:16;;;;;;;0.90;0.70;;;40.90;54.70;;;;;;5057749;28;20033;-67
2021/06/13 12:39:52;;;;;;;0.63;0.60;;;40.90;55.00;;;;;;5057816;28;20028;-67
2021/06/13 12:42:18;;;;;;;0.50;0.50;;;41.00;55.40;;;;;;5057617;28;20052;-67
2021/06/13 12:44:44;;;;;;;2.10;0.63;;;41.10;54.40;;;;;;5057427;28;20547;-67
2021/06/13 12:47:10;;;;;;;1.17;0.70;;;41.30;54.10;;;;;;5057419;28;20021;-67
2021/06/13 12:49:40;;;;;;;0.77;0.60;;;41.40;55.80;;;;;;5057351;28;20062;-66
2021/06/13 12:52:14;;;;;;;2.28;0.70;;;41.40;54.60;;;;;;5057458;28;20029;-67
2021/06/13 12:54:41;;;;;;;1.13;0.93;;;41.40;53.40;;;;;;5057129;28;20478;-67
2021/06/13 12:57:08;;;;;;;0.98;0.73;;;41.10;52.90;;;;;;5057530;28;20385;-67
2021/06/13 12:59:36;;;;;;;0.60;0.60;;;40.70;53.60;;;;;;5057328;28;20017;-67
2021/06/13 13:02:08;;;;;;;3.47;0.80;;;40.40;53.60;;;;;;5057322;28;20041;-67
2021/06/13 13:04:41;;;;;;;1.15;0.60;;;40.70;54.40;;;;;;5056948;28;20440;-67